Forestburg, TX

6:10 PM CDT on April 26, 2015 (GMT -0500)
Bowie | | Change Station
CLOSE
Current Station
Airport
Location: Bowie,
Elevation: 1102 ft
Nearby Weather Stations

Elev 1102 ft 33.60 °N, 97.77 °W | Updated 15 minutes ago

Mostly Cloudy
Mostly Cloudy
72 °F
Feels Like 72 °F
N
6
Wind Variable Wind from North

Today
High -- | Low -- °F
--% Chance of Precip.
Yesterday
High -- | Low -- °F
Precip. -- in
6:47 AM 8:09 PM
First Quarter, 59% visible
Pressure 29.61 in
Visibility 10.0 miles
Clouds Overcast 11000 ft
Dew Point 65 °F
Humidity 77%
Rainfall 0.00 in
Snow Depth Not available.
UV 1 out of 12
Pollen 8.00 out of 12
Air Quality Not available.
Flu Activity Local Activity
METAR K0F2 262255Z AUTO 01005KT 10SM OVC110 22/18 A2961 RMK AO2 LTG DSNT NW T02230181

More Conditions Fewer Conditions

Pressure 29.61 in
Visibility 10.0 miles
Clouds Overcast 11000 ft
Dew Point 65 °F
Humidity 77%
Rainfall 0.00 in
Snow Depth Not available.
UV 1 out of 12
Pollen 8.00 out of 12
Air Quality Not available.
Flu Activity Local Activity
METAR K0F2 262255Z AUTO 01005KT 10SM OVC110 22/18 A2961 RMK AO2 LTG DSNT NW T02230181

More Conditions Fewer Conditions

The full scope of the disaster following a powerful 7.8-magnitude earthquake in Nepal may not come into view for days, but global charities are already sending emergency aid. Click to see how you can help.
Nowcast | as of 5:15 PM CDT on April 26, 2015

Scattered showers and thunderstorms will affect areas mainly northwest of a Lampasas to Hillsboro to Sherman line through 730 PM. A few supercell storms will produce damaging winds and hail larger than golfballs. A few tornadoes are possible. Locally heavy rain will likely result in the some street and stream flooding. Elsewhere...skies will be partly to mostly cloudy with temperatures falling into the mid 60s in rain cooled areas...and into the low to mid 70s elsewhere by 10 PM.

×

10-Day Weather Forecast

Almanac

Astronomy

Apr. 26, 2015 Rise Set
Actual Time
Civil Twilight
Nautical Twilight
Astronomical Twilight
Moon
Length of Visible Light
Length of Day
Tomorrow will be .
, % of the Moon is Illuminated

Today's Extremes

State Highs State Lows

Community

WunderPhotos

Upload Photos

1,817,155 photos uploaded!

WunderBlogs® & News

Nearby

Air Quality

  Air Quality AQ Index Pollutant
Not available.

Snow Depth

Station Depth Elevation

Earthquake Activity

City Distance Mag. Time & Date
Minimum magnitude displayed is 2.5.

Coastal Water Temperatures

Place Temperature

Stations

Nearby Weather Stations

Station Location Temp. Windchill Dew Point Humidity Wind Precip. Elev Updated Type